Time;durP1;ratioP1;P1;durP2;ratioP2;P2;SDS_P1;SDS_P2;PMS_P1;PMS_P2;Temp;Humidity;BMP_temperature;BMP_pressure;BME280_temperature;BME280_humidity;BME280_pressure;Samples;Min_cycle;Max_cycle;Signal;HPM_P1;HPM_P2
2023/04/14 00:00:09;;;;;;;0.00;0.00;;;;;;;;;;1739161;28;20211;-74
2023/04/14 00:01:02;;;;;;;0.10;0.10;;;;;;;;;;1736865;28;20721;-73
2023/04/14 00:01:54;;;;;;;0.10;0.10;;;;;;;;;;1742366;28;20276;-73
2023/04/14 00:02:46;;;;;;;0.00;0.00;;;;;;;;;;1738279;28;20302;-73
2023/04/14 00:03:38;;;;;;;0.10;0.10;;;;;;;;;;1738721;28;20932;-73
2023/04/14 00:04:30;;;;;;;0.00;0.00;;;;;;;;;;1737883;28;20306;-73
2023/04/14 00:05:22;;;;;;;0.00;0.00;;;;;;;;;;1738045;28;20203;-73
2023/04/14 00:06:13;;;;;;;0.00;0.00;;;;;;;;;;1738279;28;20215;-73
2023/04/14 00:07:05;;;;;;;0.00;0.00;;;;;;;;;;1734005;28;20203;-73
2023/04/14 00:07:56;;;;;;;0.00;0.00;;;;;;;;;;1738153;28;20211;-73
2023/04/14 00:08:48;;;;;;;0.00;0.00;;;;;;;;;;1738923;28;20293;-73
2023/04/14 00:09:40;;;;;;;0.00;0.00;;;;;;;;;;1737922;28;20308;-73
2023/04/14 00:10:32;;;;;;;0.10;0.10;;;;;;;;;;1738354;28;20262;-73
2023/04/14 00:11:23;;;;;;;0.00;0.00;;;;;;;;;;1738078;28;20595;-73
2023/04/14 00:12:15;;;;;;;0.00;0.00;;;;;;;;;;1742430;28;20930;-73
2023/04/14 00:13:06;;;;;;;0.00;0.00;;;;;;;;;;1737536;28;20640;-73
2023/04/14 00:14:00;;;;;;;0.00;0.00;;;;;;;;;;1738617;28;20234;-73
2023/04/14 00:14:51;;;;;;;0.00;0.00;;;;;;;;;;1739529;28;20223;-73
2023/04/14 00:15:43;;;;;;;0.10;0.10;;;;;;;;;;1732720;28;20335;-74
2023/04/14 00:16:35;;;;;;;0.17;0.17;;;;;;;;;;1731365;28;20289;-74
2023/04/14 00:17:28;;;;;;;0.05;0.05;;;;;;;;;;1731479;28;20250;-73
2023/04/14 00:18:19;;;;;;;0.00;0.00;;;;;;;;;;1731546;28;20638;-74
2023/04/14 00:19:11;;;;;;;0.00;0.00;;;;;;;;;;1731522;28;20200;-74
2023/04/14 00:20:07;;;;;;;0.08;0.08;;;;;;;;;;1732209;28;20273;-74
2023/04/14 00:20:59;;;;;;;0.05;0.05;;;;;;;;;;1729714;28;20251;-74
2023/04/14 00:21:51;;;;;;;0.10;0.10;;;;;;;;;;1735383;28;20203;-74
2023/04/14 00:22:43;;;;;;;0.00;0.00;;;;;;;;;;1731259;28;20289;-74
2023/04/14 00:23:34;;;;;;;0.00;0.00;;;;;;;;;;1731417;28;20223;-74
2023/04/14 00:24:26;;;;;;;0.20;0.20;;;;;;;;;;1731406;28;20250;-74
2023/04/14 00:25:17;;;;;;;0.00;0.00;;;;;;;;;;1730290;28;20216;-74
2023/04/14 00:26:09;;;;;;;0.10;0.10;;;;;;;;;;1731254;28;20238;-74
2023/04/14 00:27:00;;;;;;;0.00;0.00;;;;;;;;;;1735786;28;20491;-74
2023/04/14 00:27:52;;;;;;;0.20;0.20;;;;;;;;;;1731248;28;20634;-74
2023/04/14 00:28:43;;;;;;;0.00;0.00;;;;;;;;;;1732267;28;20216;-74
2023/04/14 00:29:37;;;;;;;0.00;0.00;;;;;;;;;;1731295;28;21032;-74
2023/04/14 00:30:28;;;;;;;0.00;0.00;;;;;;;;;;1730918;28;20330;-75
2023/04/14 00:31:20;;;;;;;0.00;0.00;;;;;;;;;;1731272;28;20683;-75
2023/04/14 00:32:13;;;;;;;0.03;0.03;;;;;;;;;;1735291;28;20559;-74
2023/04/14 00:33:05;;;;;;;0.00;0.00;;;;;;;;;;1730973;28;20200;-74
2023/04/14 00:33:56;;;;;;;0.00;0.00;;;;;;;;;;1731783;28;20204;-74
2023/04/14 00:34:47;;;;;;;0.08;0.08;;;;;;;;;;1731464;28;20638;-74
2023/04/14 00:35:39;;;;;;;0.00;0.00;;;;;;;;;;1730749;28;20236;-75
2023/04/14 00:36:31;;;;;;;0.10;0.10;;;;;;;;;;1731670;28;20795;-75
2023/04/14 00:37:23;;;;;;;0.00;0.00;;;;;;;;;;1734759;28;20236;-75
2023/04/14 00:38:14;;;;;;;0.00;0.00;;;;;;;;;;1731116;28;20220;-75
2023/04/14 00:39:06;;;;;;;0.10;0.10;;;;;;;;;;1731782;28;20242;-75
2023/04/14 00:39:57;;;;;;;0.10;0.10;;;;;;;;;;1732713;28;20219;-75
2023/04/14 00:40:49;;;;;;;0.13;0.13;;;;;;;;;;1729930;28;20228;-75
2023/04/14 00:41:42;;;;;;;0.00;0.00;;;;;;;;;;1733699;28;20223;-74
2023/04/14 00:42:41;;;;;;;0.00;0.00;;;;;;;;;;1732796;28;20207;-74
2023/04/14 00:43:32;;;;;;;0.00;0.00;;;;;;;;;;1731190;28;20220;-74
2023/04/14 00:44:25;;;;;;;0.00;0.00;;;;;;;;;;1731766;28;20200;-75
2023/04/14 00:45:16;;;;;;;0.00;0.00;;;;;;;;;;1731498;28;20247;-75
2023/04/14 00:46:08;;;;;;;0.00;0.00;;;;;;;;;;1731736;28;20192;-75
2023/04/14 00:47:00;;;;;;;0.00;0.00;;;;;;;;;;1735867;28;20207;-75
2023/04/14 00:47:53;;;;;;;0.00;0.00;;;;;;;;;;1731750;28;20222;-75
2023/04/14 00:48:44;;;;;;;0.10;0.10;;;;;;;;;;1737765;28;20641;-75
2023/04/14 00:49:37;;;;;;;0.03;0.03;;;;;;;;;;1732757;28;20268;-74
2023/04/14 00:50:28;;;;;;;0.00;0.00;;;;;;;;;;1730402;28;20825;-74
2023/04/14 00:51:20;;;;;;;0.00;0.00;;;;;;;;;;1731744;28;20204;-74
2023/04/14 00:52:11;;;;;;;0.10;0.10;;;;;;;;;;1731589;28;20642;-75
2023/04/14 00:53:03;;;;;;;0.00;0.00;;;;;;;;;;1731279;28;20573;-75
2023/04/14 00:53:55;;;;;;;0.08;0.08;;;;;;;;;;1731467;28;20465;-74
2023/04/14 00:54:47;;;;;;;0.00;0.00;;;;;;;;;;1733253;28;20204;-74
2023/04/14 00:55:38;;;;;;;0.00;0.00;;;;;;;;;;1731445;28;20236;-74
2023/04/14 00:56:30;;;;;;;0.15;0.15;;;;;;;;;;1733423;28;20224;-74
2023/04/14 00:57:21;;;;;;;0.00;0.00;;;;;;;;;;1734875;28;20219;-74
2023/04/14 00:58:14;;;;;;;0.00;0.00;;;;;;;;;;1729285;28;20295;-74
2023/04/14 00:59:06;;;;;;;0.00;0.00;;;;;;;;;;1731344;28;20212;-74
2023/04/14 00:59:58;;;;;;;0.10;0.10;;;;;;;;;;1732403;28;20200;-74
2023/04/14 01:00:54;;;;;;;0.00;0.00;;;;;;;;;;1730104;28;20304;-74
2023/04/14 01:01:46;;;;;;;0.30;0.30;;;;;;;;;;1734206;28;20676;-74
2023/04/14 01:02:37;;;;;;;0.20;0.20;;;;;;;;;;1732211;28;20216;-74
2023/04/14 01:03:30;;;;;;;0.10;0.10;;;;;;;;;;1731501;28;20674;-74
2023/04/14 01:04:22;;;;;;;0.10;0.10;;;;;;;;;;1731104;28;20223;-74
2023/04/14 01:05:14;;;;;;;0.10;0.10;;;;;;;;;;1729983;28;20204;-75
2023/04/14 01:06:05;;;;;;;0.20;0.20;;;;;;;;;;1732690;28;20215;-74
2023/04/14 01:06:57;;;;;;;0.10;0.10;;;;;;;;;;1736999;28;20744;-75
2023/04/14 01:07:48;;;;;;;0.00;0.00;;;;;;;;;;1732448;28;20220;-75
2023/04/14 01:08:40;;;;;;;0.00;0.00;;;;;;;;;;1732298;28;20243;-75
2023/04/14 01:09:31;;;;;;;0.00;0.00;;;;;;;;;;1732109;28;20227;-74
2023/04/14 01:10:24;;;;;;;0.00;0.00;;;;;;;;;;1732650;28;20188;-74
2023/04/14 01:11:16;;;;;;;0.00;0.00;;;;;;;;;;1732489;28;20246;-74
2023/04/14 01:12:16;;;;;;;0.00;0.00;;;;;;;;;;1736578;28;20238;-74
2023/04/14 01:13:11;;;;;;;0.00;0.00;;;;;;;;;;1732257;28;20205;-74
2023/04/14 01:14:08;;;;;;;0.10;0.10;;;;;;;;;;1738532;28;20629;-75
2023/04/14 01:15:04;;;;;;;0.10;0.10;;;;;;;;;;1733914;28;20206;-74
2023/04/14 01:15:57;;;;;;;0.10;0.10;;;;;;;;;;1730669;28;20236;-74
2023/04/14 01:16:51;;;;;;;0.00;0.00;;;;;;;;;;1732867;28;20725;-74
2023/04/14 01:17:45;;;;;;;0.20;0.20;;;;;;;;;;1732210;28;20227;-74
2023/04/14 01:18:46;;;;;;;0.10;0.10;;;;;;;;;;1732459;28;20232;-74
2023/04/14 01:19:42;;;;;;;0.00;0.00;;;;;;;;;;1732335;28;20321;-74
2023/04/14 01:20:35;;;;;;;0.05;0.05;;;;;;;;;;1731103;28;20232;-74
2023/04/14 01:21:30;;;;;;;0.10;0.10;;;;;;;;;;1732158;28;20212;-74
2023/04/14 01:22:23;;;;;;;0.20;0.20;;;;;;;;;;1732541;28;20220;-74
2023/04/14 01:23:17;;;;;;;0.00;0.00;;;;;;;;;;1731591;28;20273;-74
2023/04/14 01:24:15;;;;;;;0.00;0.00;;;;;;;;;;1732537;28;20650;-75
2023/04/14 01:25:17;;;;;;;0.08;0.08;;;;;;;;;;1732486;28;20774;-74
2023/04/14 01:26:20;;;;;;;0.00;0.00;;;;;;;;;;1730517;28;20553;-74
2023/04/14 01:27:20;;;;;;;0.10;0.10;;;;;;;;;;1732741;28;20213;-74
2023/04/14 01:28:20;;;;;;;0.15;0.15;;;;;;;;;;1731614;28;20204;-74
2023/04/14 01:29:32;;;;;;;0.00;0.00;;;;;;;;;;1732723;28;20196;-74
2023/04/14 01:30:36;;;;;;;0.10;0.10;;;;;;;;;;1729130;28;20208;-74
2023/04/14 01:31:29;;;;;;;0.00;0.00;;;;;;;;;;1732652;28;20277;-74
2023/04/14 01:32:23;;;;;;;0.08;0.08;;;;;;;;;;1732363;28;20209;-74
2023/04/14 01:33:17;;;;;;;0.00;0.00;;;;;;;;;;1731943;28;20351;-74
2023/04/14 01:34:11;;;;;;;0.10;0.10;;;;;;;;;;1732707;28;20273;-74
2023/04/14 01:35:08;;;;;;;0.00;0.00;;;;;;;;;;1732205;28;20204;-74
2023/04/14 01:36:04;;;;;;;0.05;0.05;;;;;;;;;;1730837;28;20707;-74
2023/04/14 01:36:57;;;;;;;0.32;0.32;;;;;;;;;;1731821;28;20626;-74
2023/04/14 01:37:52;;;;;;;0.05;0.05;;;;;;;;;;1728722;28;20689;-74
2023/04/14 01:38:45;;;;;;;0.10;0.10;;;;;;;;;;1732552;28;20220;-74
2023/04/14 01:39:38;;;;;;;0.10;0.10;;;;;;;;;;1732073;28;20216;-74
2023/04/14 01:40:31;;;;;;;0.00;0.00;;;;;;;;;;1731156;28;20251;-74
2023/04/14 01:41:23;;;;;;;0.10;0.10;;;;;;;;;;1732631;28;20223;-74
2023/04/14 01:42:17;;;;;;;0.00;0.00;;;;;;;;;;1733290;28;20588;-74
2023/04/14 01:43:09;;;;;;;0.10;0.10;;;;;;;;;;1732917;28;20211;-74
2023/04/14 01:44:01;;;;;;;0.05;0.05;;;;;;;;;;1733257;28;20208;-74
2023/04/14 01:44:56;;;;;;;0.03;0.03;;;;;;;;;;1732394;28;20621;-74
2023/04/14 01:45:49;;;;;;;0.10;0.10;;;;;;;;;;1730715;28;20247;-74
2023/04/14 01:46:43;;;;;;;0.00;0.00;;;;;;;;;;1732267;28;20204;-74
2023/04/14 01:47:35;;;;;;;0.10;0.10;;;;;;;;;;1732133;28;20277;-74
2023/04/14 01:48:27;;;;;;;0.10;0.10;;;;;;;;;;1732322;28;20867;-74
2023/04/14 01:49:20;;;;;;;0.08;0.08;;;;;;;;;;1732054;28;20208;-73
2023/04/14 01:50:12;;;;;;;0.20;0.20;;;;;;;;;;1730558;28;20238;-74
2023/04/14 01:51:04;;;;;;;0.00;0.00;;;;;;;;;;1731186;28;20746;-74
2023/04/14 01:51:56;;;;;;;0.00;0.00;;;;;;;;;;1731538;28;20200;-74
2023/04/14 01:52:51;;;;;;;0.22;0.22;;;;;;;;;;1731347;28;20232;-74
2023/04/14 01:53:44;;;;;;;0.00;0.00;;;;;;;;;;1731920;28;20215;-74
2023/04/14 01:54:36;;;;;;;0.10;0.10;;;;;;;;;;1731734;28;20306;-74
2023/04/14 01:55:29;;;;;;;0.10;0.10;;;;;;;;;;1730756;28;20218;-74
2023/04/14 01:56:21;;;;;;;0.35;0.35;;;;;;;;;;1732301;28;20216;-74
2023/04/14 01:57:13;;;;;;;0.00;0.00;;;;;;;;;;1732442;28;20211;-74
2023/04/14 01:58:06;;;;;;;0.10;0.10;;;;;;;;;;1730486;28;20216;-74
2023/04/14 01:58:58;;;;;;;0.10;0.10;;;;;;;;;;1732531;28;20266;-74
2023/04/14 01:59:49;;;;;;;0.10;0.10;;;;;;;;;;1732139;28;20273;-74
2023/04/14 02:00:42;;;;;;;0.15;0.15;;;;;;;;;;1728082;28;20366;-74
2023/04/14 02:01:34;;;;;;;0.00;0.00;;;;;;;;;;1734970;28;20280;-74
2023/04/14 02:02:28;;;;;;;0.05;0.05;;;;;;;;;;1735316;28;20528;-74
2023/04/14 02:03:20;;;;;;;0.10;0.10;;;;;;;;;;1732150;28;20657;-75
2023/04/14 02:04:13;;;;;;;0.20;0.20;;;;;;;;;;1732323;28;20315;-75
2023/04/14 02:05:06;;;;;;;0.10;0.10;;;;;;;;;;1731975;28;20257;-75
2023/04/14 02:05:58;;;;;;;0.10;0.10;;;;;;;;;;1730970;28;21128;-74
2023/04/14 02:06:49;;;;;;;0.00;0.00;;;;;;;;;;1731858;28;20220;-74
2023/04/14 02:07:41;;;;;;;0.20;0.20;;;;;;;;;;1731763;28;20236;-74
2023/04/14 02:08:33;;;;;;;0.00;0.00;;;;;;;;;;1731000;28;20666;-74
2023/04/14 02:09:25;;;;;;;0.10;0.10;;;;;;;;;;1731591;28;20235;-74
2023/04/14 02:10:18;;;;;;;0.00;0.00;;;;;;;;;;1730755;28;20232;-74
2023/04/14 02:11:13;;;;;;;0.10;0.10;;;;;;;;;;1731686;28;20320;-74
2023/04/14 02:12:04;;;;;;;0.10;0.10;;;;;;;;;;1732376;28;20506;-74
2023/04/14 02:12:57;;;;;;;0.20;0.20;;;;;;;;;;1731338;28;20200;-74
2023/04/14 02:13:48;;;;;;;0.10;0.10;;;;;;;;;;1732597;28;20630;-74
2023/04/14 02:14:41;;;;;;;0.03;0.03;;;;;;;;;;1731631;28;20216;-74
2023/04/14 02:15:33;;;;;;;0.10;0.10;;;;;;;;;;1730535;28;20252;-74
2023/04/14 02:16:26;;;;;;;0.00;0.00;;;;;;;;;;1732049;28;20219;-74
2023/04/14 02:17:18;;;;;;;0.00;0.00;;;;;;;;;;1727877;28;20220;-74
2023/04/14 02:18:11;;;;;;;0.00;0.00;;;;;;;;;;1730955;28;20271;-74
2023/04/14 02:19:03;;;;;;;0.10;0.10;;;;;;;;;;1732247;28;20273;-74
2023/04/14 02:19:56;;;;;;;0.10;0.10;;;;;;;;;;1733027;28;20208;-74
2023/04/14 02:20:48;;;;;;;0.10;0.10;;;;;;;;;;1730708;28;20240;-74
2023/04/14 02:21:40;;;;;;;0.20;0.20;;;;;;;;;;1733494;28;20285;-74
2023/04/14 02:22:32;;;;;;;0.20;0.20;;;;;;;;;;1734537;28;20216;-74
2023/04/14 02:23:24;;;;;;;0.25;0.25;;;;;;;;;;1731658;28;20247;-74
2023/04/14 02:24:15;;;;;;;0.10;0.10;;;;;;;;;;1732180;28;20312;-74
2023/04/14 02:25:07;;;;;;;0.00;0.00;;;;;;;;;;1733834;28;20249;-74
2023/04/14 02:26:01;;;;;;;0.20;0.20;;;;;;;;;;1730438;28;20297;-74
2023/04/14 02:26:54;;;;;;;0.00;0.00;;;;;;;;;;1736265;28;20207;-74
2023/04/14 02:27:48;;;;;;;0.00;0.00;;;;;;;;;;1732111;28;20276;-74
2023/04/14 02:28:43;;;;;;;0.10;0.10;;;;;;;;;;1732348;28;20316;-74
2023/04/14 02:29:35;;;;;;;0.08;0.08;;;;;;;;;;1731735;28;20219;-74
2023/04/14 02:30:29;;;;;;;0.00;0.00;;;;;;;;;;1735534;28;21095;-74
2023/04/14 02:31:22;;;;;;;0.10;0.10;;;;;;;;;;1735544;28;20250;-74
2023/04/14 02:32:17;;;;;;;0.05;0.05;;;;;;;;;;1736369;28;20346;-74
2023/04/14 02:33:10;;;;;;;0.10;0.10;;;;;;;;;;1733057;28;20208;-74
2023/04/14 02:34:05;;;;;;;0.10;0.10;;;;;;;;;;1732215;28;20250;-74
2023/04/14 02:35:03;;;;;;;0.00;0.00;;;;;;;;;;1733554;28;20634;-74
2023/04/14 02:35:59;;;;;;;0.10;0.10;;;;;;;;;;1724800;28;20317;-74
2023/04/14 02:36:54;;;;;;;0.08;0.08;;;;;;;;;;1735742;28;20200;-74
2023/04/14 02:37:48;;;;;;;0.00;0.00;;;;;;;;;;1732351;28;20215;-74
2023/04/14 02:38:43;;;;;;;0.10;0.10;;;;;;;;;;1732166;28;20220;-74
2023/04/14 02:39:36;;;;;;;0.10;0.10;;;;;;;;;;1731706;28;20259;-74
2023/04/14 02:40:31;;;;;;;0.00;0.00;;;;;;;;;;1732059;28;20204;-74
2023/04/14 02:41:24;;;;;;;0.00;0.00;;;;;;;;;;1731788;28;20220;-74
2023/04/14 02:42:17;;;;;;;0.00;0.00;;;;;;;;;;1736484;28;20547;-74
2023/04/14 02:43:11;;;;;;;0.08;0.08;;;;;;;;;;1731347;28;20212;-74
2023/04/14 02:44:05;;;;;;;0.10;0.10;;;;;;;;;;1732229;28;20204;-74
2023/04/14 02:44:59;;;;;;;0.17;0.17;;;;;;;;;;1733481;28;20246;-74
2023/04/14 02:45:52;;;;;;;0.00;0.00;;;;;;;;;;1730934;28;20258;-74
2023/04/14 02:46:46;;;;;;;0.10;0.10;;;;;;;;;;1734113;28;20695;-74
2023/04/14 02:47:41;;;;;;;0.00;0.00;;;;;;;;;;1733907;28;20295;-74
2023/04/14 02:48:33;;;;;;;0.00;0.00;;;;;;;;;;1731131;28;20220;-74
2023/04/14 02:49:27;;;;;;;0.00;0.00;;;;;;;;;;1732110;28;20255;-74
2023/04/14 02:50:18;;;;;;;0.10;0.10;;;;;;;;;;1732559;28;20231;-74
2023/04/14 02:51:11;;;;;;;0.10;0.10;;;;;;;;;;1731911;28;20677;-74
2023/04/14 02:52:04;;;;;;;0.10;0.10;;;;;;;;;;1732232;28;20208;-74
2023/04/14 02:52:58;;;;;;;0.10;0.10;;;;;;;;;;1731884;28;20578;-74
2023/04/14 02:53:49;;;;;;;0.20;0.20;;;;;;;;;;1732529;28;20366;-74
2023/04/14 02:54:42;;;;;;;0.00;0.00;;;;;;;;;;1731758;28;20219;-74
2023/04/14 02:55:34;;;;;;;0.10;0.10;;;;;;;;;;1730675;28;20240;-75
2023/04/14 02:56:27;;;;;;;0.00;0.00;;;;;;;;;;1732156;28;20726;-74
2023/04/14 02:57:18;;;;;;;0.10;0.10;;;;;;;;;;1736833;28;20207;-74
2023/04/14 02:58:10;;;;;;;0.00;0.00;;;;;;;;;;1733012;28;20219;-74
2023/04/14 02:59:02;;;;;;;0.10;0.10;;;;;;;;;;1732344;28;20216;-74
2023/04/14 02:59:54;;;;;;;0.10;0.10;;;;;;;;;;1733126;28;20697;-74
2023/04/14 03:00:47;;;;;;;0.10;0.10;;;;;;;;;;1730925;28;20232;-75
2023/04/14 03:01:38;;;;;;;0.08;0.08;;;;;;;;;;1733363;28;20213;-74
2023/04/14 03:02:30;;;;;;;0.10;0.10;;;;;;;;;;1734893;28;20212;-74
2023/04/14 03:03:22;;;;;;;0.13;0.13;;;;;;;;;;1731514;28;20590;-74
2023/04/14 03:04:14;;;;;;;0.10;0.10;;;;;;;;;;1731948;28;20591;-74
2023/04/14 03:05:09;;;;;;;0.10;0.10;;;;;;;;;;1733821;28;20597;-74
2023/04/14 03:06:00;;;;;;;0.40;0.40;;;;;;;;;;1730372;28;20581;-74
2023/04/14 03:06:52;;;;;;;0.00;0.00;;;;;;;;;;1735802;28;20455;-74
2023/04/14 03:07:44;;;;;;;0.03;0.03;;;;;;;;;;1732540;28;20220;-74
2023/04/14 03:08:37;;;;;;;0.10;0.10;;;;;;;;;;1732200;28;20518;-74
2023/04/14 03:09:29;;;;;;;0.10;0.10;;;;;;;;;;1731632;28;20656;-74
2023/04/14 03:10:22;;;;;;;0.10;0.10;;;;;;;;;;1732357;28;20215;-74
2023/04/14 03:11:13;;;;;;;0.00;0.00;;;;;;;;;;1731471;28;20541;-74
2023/04/14 03:12:06;;;;;;;0.10;0.10;;;;;;;;;;1736746;28;20217;-74
2023/04/14 03:12:58;;;;;;;0.10;0.10;;;;;;;;;;1724761;28;21021;-74
2023/04/14 03:13:52;;;;;;;0.00;0.00;;;;;;;;;;1731115;28;20212;-74
2023/04/14 03:14:44;;;;;;;0.20;0.20;;;;;;;;;;1731545;28;20281;-74
2023/04/14 03:15:36;;;;;;;0.10;0.10;;;;;;;;;;1735348;28;20274;-74
2023/04/14 03:16:28;;;;;;;0.00;0.00;;;;;;;;;;1739020;28;20707;-74
2023/04/14 03:17:21;;;;;;;0.00;0.00;;;;;;;;;;1741420;28;20926;-74
2023/04/14 03:18:12;;;;;;;0.20;0.20;;;;;;;;;;1739318;28;20211;-74
2023/04/14 03:19:04;;;;;;;0.00;0.00;;;;;;;;;;1739261;28;20199;-74
2023/04/14 03:19:55;;;;;;;0.10;0.10;;;;;;;;;;1738518;28;20280;-74
2023/04/14 03:20:50;;;;;;;0.10;0.10;;;;;;;;;;1737467;28;20235;-74
2023/04/14 03:21:41;;;;;;;0.10;0.10;;;;;;;;;;1738183;28;20230;-74
2023/04/14 03:22:37;;;;;;;0.00;0.00;;;;;;;;;;1742124;28;20203;-74
2023/04/14 03:23:28;;;;;;;0.10;0.10;;;;;;;;;;1739256;28;20230;-74
2023/04/14 03:24:23;;;;;;;0.08;0.08;;;;;;;;;;1739278;28;20584;-74
2023/04/14 03:25:14;;;;;;;0.15;0.15;;;;;;;;;;1736769;28;20237;-74
2023/04/14 03:26:07;;;;;;;0.20;0.20;;;;;;;;;;1738270;28;20534;-74
2023/04/14 03:27:00;;;;;;;0.00;0.00;;;;;;;;;;1743354;28;20723;-74
2023/04/14 03:27:53;;;;;;;0.10;0.10;;;;;;;;;;1741179;28;20423;-74
2023/04/14 03:28:46;;;;;;;0.00;0.00;;;;;;;;;;1739466;28;20219;-74
2023/04/14 03:29:40;;;;;;;0.00;0.00;;;;;;;;;;1738557;28;20223;-74
2023/04/14 03:30:31;;;;;;;0.00;0.00;;;;;;;;;;1737301;28;20676;-74
2023/04/14 03:31:31;;;;;;;0.25;0.25;;;;;;;;;;1739094;28;20648;-74
2023/04/14 03:32:22;;;;;;;0.00;0.00;;;;;;;;;;1737270;28;20225;-74
2023/04/14 03:33:18;;;;;;;0.00;0.00;;;;;;;;;;1738956;28;20255;-74
2023/04/14 03:34:10;;;;;;;0.00;0.00;;;;;;;;;;1739186;28;20681;-74
2023/04/14 03:35:06;;;;;;;0.10;0.10;;;;;;;;;;1738674;28;20211;-74
2023/04/14 03:35:59;;;;;;;0.10;0.10;;;;;;;;;;1735631;28;20690;-74
2023/04/14 03:36:53;;;;;;;0.20;0.20;;;;;;;;;;1737574;28;20276;-74
2023/04/14 03:37:45;;;;;;;0.03;0.03;;;;;;;;;;1741337;28;20575;-74
2023/04/14 03:38:38;;;;;;;0.00;0.00;;;;;;;;;;1739021;28;20223;-74
2023/04/14 03:39:32;;;;;;;0.20;0.20;;;;;;;;;;1738803;28;20272;-74
2023/04/14 03:40:29;;;;;;;0.10;0.10;;;;;;;;;;1737349;28;20214;-74
2023/04/14 03:41:20;;;;;;;0.30;0.30;;;;;;;;;;1739064;28;20589;-74
2023/04/14 03:42:12;;;;;;;0.00;0.00;;;;;;;;;;1739894;28;20199;-74
2023/04/14 03:43:04;;;;;;;0.10;0.10;;;;;;;;;;1739583;28;20264;-74
2023/04/14 03:43:56;;;;;;;0.10;0.10;;;;;;;;;;1739314;28;20546;-74
2023/04/14 03:44:52;;;;;;;0.10;0.10;;;;;;;;;;1738606;28;20648;-74
2023/04/14 03:45:44;;;;;;;0.00;0.00;;;;;;;;;;1737580;28;20235;-74
2023/04/14 03:46:35;;;;;;;0.20;0.20;;;;;;;;;;1738889;28;20219;-74
2023/04/14 03:47:30;;;;;;;0.00;0.00;;;;;;;;;;1741948;28;20207;-74
2023/04/14 03:48:21;;;;;;;0.10;0.10;;;;;;;;;;1738782;28;20246;-74
2023/04/14 03:49:15;;;;;;;0.00;0.00;;;;;;;;;;1738753;28;20218;-74
2023/04/14 03:50:09;;;;;;;0.00;0.00;;;;;;;;;;1739246;28;20212;-74
2023/04/14 03:51:04;;;;;;;0.00;0.00;;;;;;;;;;1736813;28;20243;-74
2023/04/14 03:51:57;;;;;;;0.00;0.00;;;;;;;;;;1737787;28;20212;-74
2023/04/14 03:52:51;;;;;;;0.10;0.10;;;;;;;;;;1741007;28;20245;-74
2023/04/14 03:53:42;;;;;;;0.00;0.00;;;;;;;;;;1739192;28;20619;-74
2023/04/14 03:54:36;;;;;;;0.08;0.08;;;;;;;;;;1738813;28;20561;-74
2023/04/14 03:55:30;;;;;;;0.20;0.20;;;;;;;;;;1738278;28;20541;-74
2023/04/14 03:56:23;;;;;;;0.10;0.10;;;;;;;;;;1739313;28;20215;-74
2023/04/14 03:57:16;;;;;;;0.10;0.10;;;;;;;;;;1739955;28;20238;-74
2023/04/14 03:58:09;;;;;;;0.10;0.10;;;;;;;;;;1739613;28;20315;-74
2023/04/14 03:59:00;;;;;;;0.10;0.10;;;;;;;;;;1739006;28;20621;-74
2023/04/14 03:59:53;;;;;;;0.10;0.10;;;;;;;;;;1738499;28;20284;-74
2023/04/14 04:00:45;;;;;;;0.10;0.10;;;;;;;;;;1742490;28;20604;-74
2023/04/14 04:01:38;;;;;;;0.20;0.20;;;;;;;;;;1738870;28;20222;-74
2023/04/14 04:02:29;;;;;;;0.00;0.00;;;;;;;;;;1741575;28;20215;-74
2023/04/14 04:03:22;;;;;;;0.10;0.10;;;;;;;;;;1738382;28;20261;-74
2023/04/14 04:04:13;;;;;;;0.10;0.10;;;;;;;;;;1738831;28;20211;-74
2023/04/14 04:05:06;;;;;;;0.10;0.10;;;;;;;;;;1738807;28;20207;-73
2023/04/14 04:05:58;;;;;;;0.20;0.20;;;;;;;;;;1741954;28;20269;-73
2023/04/14 04:06:51;;;;;;;0.10;0.10;;;;;;;;;;1739284;28;20221;-73
2023/04/14 04:07:43;;;;;;;0.20;0.20;;;;;;;;;;1741186;28;20215;-73
2023/04/14 04:08:36;;;;;;;0.25;0.25;;;;;;;;;;1738896;28;20549;-73
2023/04/14 04:09:28;;;;;;;0.10;0.10;;;;;;;;;;1738701;28;21245;-73
2023/04/14 04:10:21;;;;;;;0.20;0.20;;;;;;;;;;1738989;28;20229;-74
2023/04/14 04:11:12;;;;;;;0.00;0.00;;;;;;;;;;1742472;28;20284;-73
2023/04/14 04:12:05;;;;;;;0.10;0.10;;;;;;;;;;1738721;28;20240;-73
2023/04/14 04:12:57;;;;;;;0.00;0.00;;;;;;;;;;1730698;28;20277;-73
2023/04/14 04:13:49;;;;;;;0.20;0.20;;;;;;;;;;1738517;28;20606;-74
2023/04/14 04:14:40;;;;;;;0.05;0.05;;;;;;;;;;1738399;28;20608;-74
2023/04/14 04:15:33;;;;;;;0.00;0.00;;;;;;;;;;1740863;28;22799;-74
2023/04/14 04:16:26;;;;;;;0.10;0.10;;;;;;;;;;1740575;28;20211;-74
2023/04/14 04:17:19;;;;;;;0.10;0.10;;;;;;;;;;1735296;28;20567;-74
2023/04/14 04:18:12;;;;;;;0.00;0.00;;;;;;;;;;1738847;28;20207;-74
2023/04/14 04:19:05;;;;;;;0.10;0.10;;;;;;;;;;1738950;28;20353;-74
2023/04/14 04:19:58;;;;;;;0.05;0.05;;;;;;;;;;1742060;28;20720;-74
2023/04/14 04:20:50;;;;;;;0.28;0.28;;;;;;;;;;1742704;28;20256;-74
2023/04/14 04:21:42;;;;;;;0.10;0.10;;;;;;;;;;1738783;28;20612;-73
2023/04/14 04:22:37;;;;;;;0.20;0.20;;;;;;;;;;1741028;28;20221;-73
2023/04/14 04:23:31;;;;;;;0.10;0.10;;;;;;;;;;1737870;28;20269;-74
2023/04/14 04:24:25;;;;;;;0.10;0.10;;;;;;;;;;1737932;28;20204;-74
2023/04/14 04:25:16;;;;;;;0.10;0.10;;;;;;;;;;1738620;28;20207;-74
2023/04/14 04:26:08;;;;;;;0.20;0.20;;;;;;;;;;1742291;28;20219;-74
2023/04/14 04:27:00;;;;;;;0.10;0.10;;;;;;;;;;1743424;28;20636;-74
2023/04/14 04:27:51;;;;;;;0.10;0.10;;;;;;;;;;1738637;28;20215;-74
2023/04/14 04:28:43;;;;;;;0.10;0.10;;;;;;;;;;1738552;28;20623;-74
2023/04/14 04:29:34;;;;;;;0.10;0.10;;;;;;;;;;1738133;28;20311;-73
2023/04/14 04:30:28;;;;;;;0.17;0.17;;;;;;;;;;1739366;28;20208;-74
2023/04/14 04:31:20;;;;;;;0.15;0.15;;;;;;;;;;1738808;28;20745;-74
2023/04/14 04:32:12;;;;;;;0.20;0.20;;;;;;;;;;1743817;28;20289;-74
2023/04/14 04:33:03;;;;;;;0.10;0.10;;;;;;;;;;1739298;28;20207;-74
2023/04/14 04:33:55;;;;;;;0.10;0.10;;;;;;;;;;1738522;28;20659;-74
2023/04/14 04:34:47;;;;;;;0.05;0.05;;;;;;;;;;1741155;28;20356;-74
2023/04/14 04:35:39;;;;;;;0.00;0.00;;;;;;;;;;1737455;28;20230;-74
2023/04/14 04:36:31;;;;;;;0.15;0.15;;;;;;;;;;1738612;28;20610;-74
2023/04/14 04:37:27;;;;;;;0.10;0.10;;;;;;;;;;1742927;28;20229;-74
2023/04/14 04:38:19;;;;;;;0.10;0.10;;;;;;;;;;1739894;28;20547;-74
2023/04/14 04:39:11;;;;;;;0.10;0.10;;;;;;;;;;1744345;28;20210;-74
2023/04/14 04:40:06;;;;;;;0.05;0.05;;;;;;;;;;1742556;28;20203;-74
2023/04/14 04:40:58;;;;;;;0.50;0.50;;;;;;;;;;1731680;28;20263;-74
2023/04/14 04:41:50;;;;;;;0.10;0.10;;;;;;;;;;1743584;28;20223;-74
2023/04/14 04:42:42;;;;;;;0.10;0.10;;;;;;;;;;1741322;28;20268;-74
2023/04/14 04:43:33;;;;;;;0.30;0.30;;;;;;;;;;1740384;28;20298;-73
2023/04/14 04:44:25;;;;;;;0.00;0.00;;;;;;;;;;1739892;28;20211;-73
2023/04/14 04:45:20;;;;;;;0.15;0.15;;;;;;;;;;1740759;28;20260;-73
2023/04/14 04:46:20;;;;;;;0.15;0.15;;;;;;;;;;1739484;28;20613;-73
2023/04/14 04:47:11;;;;;;;0.10;0.10;;;;;;;;;;1745138;28;20199;-73
2023/04/14 04:48:04;;;;;;;0.10;0.10;;;;;;;;;;1741070;28;20214;-73
2023/04/14 04:48:56;;;;;;;0.10;0.10;;;;;;;;;;1739839;28;20522;-74
2023/04/14 04:49:48;;;;;;;0.13;0.13;;;;;;;;;;1739301;28;20214;-75
2023/04/14 04:50:40;;;;;;;0.30;0.30;;;;;;;;;;1740817;28;20684;-74
2023/04/14 04:51:32;;;;;;;0.10;0.10;;;;;;;;;;1738230;28;20712;-73
2023/04/14 04:52:24;;;;;;;0.00;0.00;;;;;;;;;;1739808;28;20272;-74
2023/04/14 04:53:16;;;;;;;0.10;0.10;;;;;;;;;;1739295;28;20707;-74
2023/04/14 04:54:08;;;;;;;0.17;0.17;;;;;;;;;;1739987;28;20204;-73
2023/04/14 04:55:03;;;;;;;0.10;0.10;;;;;;;;;;1741670;28;20219;-74
2023/04/14 04:55:55;;;;;;;0.13;0.13;;;;;;;;;;1733167;28;20305;-74
2023/04/14 04:56:47;;;;;;;0.20;0.20;;;;;;;;;;1742611;28;20690;-74
2023/04/14 04:57:38;;;;;;;0.10;0.10;;;;;;;;;;1742046;28;20268;-74
2023/04/14 04:58:30;;;;;;;0.17;0.17;;;;;;;;;;1739974;28;20203;-74
2023/04/14 04:59:21;;;;;;;0.00;0.00;;;;;;;;;;1740025;28;20207;-74
2023/04/14 05:00:13;;;;;;;0.10;0.10;;;;;;;;;;1741749;28;20655;-74
2023/04/14 05:01:07;;;;;;;0.00;0.00;;;;;;;;;;1740196;28;20262;-73
2023/04/14 05:01:59;;;;;;;0.10;0.10;;;;;;;;;;1744286;28;20210;-73
2023/04/14 05:02:50;;;;;;;0.10;0.10;;;;;;;;;;1741357;28;20212;-73
2023/04/14 05:03:42;;;;;;;0.10;0.10;;;;;;;;;;1739896;28;20257;-73
2023/04/14 05:04:33;;;;;;;0.10;0.10;;;;;;;;;;1741180;28;20569;-73
2023/04/14 05:05:26;;;;;;;0.43;0.43;;;;;;;;;;1740126;28;20321;-74
2023/04/14 05:06:17;;;;;;;0.20;0.20;;;;;;;;;;1739436;28;20544;-74
2023/04/14 05:07:09;;;;;;;0.10;0.10;;;;;;;;;;1745547;28;20203;-74
2023/04/14 05:08:00;;;;;;;0.10;0.10;;;;;;;;;;1739593;28;20265;-74
2023/04/14 05:08:51;;;;;;;0.10;0.10;;;;;;;;;;1740040;28;20629;-74
2023/04/14 05:09:44;;;;;;;0.10;0.10;;;;;;;;;;1739648;28;20629;-74
2023/04/14 05:10:35;;;;;;;0.00;0.00;;;;;;;;;;1738077;28;20564;-74
2023/04/14 05:11:27;;;;;;;0.00;0.00;;;;;;;;;;1739041;28;20231;-74
2023/04/14 05:12:18;;;;;;;0.00;0.00;;;;;;;;;;1744653;28;20498;-74
2023/04/14 05:13:10;;;;;;;0.20;0.20;;;;;;;;;;1738926;28;20642;-74
2023/04/14 05:14:01;;;;;;;0.05;0.05;;;;;;;;;;1740190;28;20211;-74
2023/04/14 05:14:53;;;;;;;0.10;0.10;;;;;;;;;;1743110;28;20207;-74
2023/04/14 05:15:44;;;;;;;0.10;0.10;;;;;;;;;;1738235;28;20743;-74
2023/04/14 05:16:36;;;;;;;0.10;0.10;;;;;;;;;;1738291;28;20672;-74